sensor_id;sensor_type;location;lat;lon;timestamp;P1;durP1;ratioP1;P2;durP2;ratioP2
21941;SDS011;11135;54.192;15.670;2023-11-18T00:02:10;12.20;;;7.60;;
21941;SDS011;11135;54.192;15.670;2023-11-18T00:05:36;10.65;;;7.43;;
21941;SDS011;11135;54.192;15.670;2023-11-18T00:09:04;15.45;;;8.13;;
21941;SDS011;11135;54.192;15.670;2023-11-18T00:12:30;14.52;;;7.70;;
21941;SDS011;11135;54.192;15.670;2023-11-18T00:15:57;13.23;;;8.02;;
21941;SDS011;11135;54.192;15.670;2023-11-18T00:19:23;12.57;;;7.65;;
21941;SDS011;11135;54.192;15.670;2023-11-18T00:22:48;13.50;;;8.27;;
21941;SDS011;11135;54.192;15.670;2023-11-18T00:26:18;8.98;;;6.10;;
21941;SDS011;11135;54.192;15.670;2023-11-18T00:29:44;11.98;;;6.50;;
21941;SDS011;11135;54.192;15.670;2023-11-18T00:33:09;11.18;;;6.32;;
21941;SDS011;11135;54.192;15.670;2023-11-18T00:36:35;12.23;;;7.22;;
21941;SDS011;11135;54.192;15.670;2023-11-18T00:40:00;14.55;;;6.47;;
21941;SDS011;11135;54.192;15.670;2023-11-18T00:43:30;15.65;;;8.40;;
21941;SDS011;11135;54.192;15.670;2023-11-18T00:46:55;15.57;;;7.57;;
21941;SDS011;11135;54.192;15.670;2023-11-18T00:50:23;12.95;;;7.40;;
21941;SDS011;11135;54.192;15.670;2023-11-18T00:53:49;12.25;;;7.63;;
21941;SDS011;11135;54.192;15.670;2023-11-18T00:57:16;11.98;;;6.90;;
21941;SDS011;11135;54.192;15.670;2023-11-18T01:00:45;14.02;;;7.40;;
21941;SDS011;11135;54.192;15.670;2023-11-18T01:04:12;10.95;;;6.90;;
21941;SDS011;11135;54.192;15.670;2023-11-18T01:07:38;12.88;;;7.22;;
21941;SDS011;11135;54.192;15.670;2023-11-18T01:11:05;13.40;;;7.25;;
21941;SDS011;11135;54.192;15.670;2023-11-18T01:14:31;19.73;;;8.77;;
21941;SDS011;11135;54.192;15.670;2023-11-18T01:18:00;13.52;;;8.00;;
21941;SDS011;11135;54.192;15.670;2023-11-18T01:21:26;14.63;;;7.63;;
21941;SDS011;11135;54.192;15.670;2023-11-18T01:24:52;15.52;;;8.73;;
21941;SDS011;11135;54.192;15.670;2023-11-18T01:28:18;19.80;;;9.02;;
21941;SDS011;11135;54.192;15.670;2023-11-18T01:31:44;17.33;;;9.00;;
21941;SDS011;11135;54.192;15.670;2023-11-18T01:35:17;16.65;;;9.88;;
21941;SDS011;11135;54.192;15.670;2023-11-18T01:38:42;21.15;;;10.65;;
21941;SDS011;11135;54.192;15.670;2023-11-18T01:42:09;19.98;;;10.45;;
21941;SDS011;11135;54.192;15.670;2023-11-18T01:45:34;18.10;;;9.93;;
21941;SDS011;11135;54.192;15.670;2023-11-18T01:49:00;17.33;;;10.50;;
21941;SDS011;11135;54.192;15.670;2023-11-18T01:52:28;21.70;;;11.77;;
21941;SDS011;11135;54.192;15.670;2023-11-18T01:55:55;20.55;;;11.38;;
21941;SDS011;11135;54.192;15.670;2023-11-18T01:59:21;24.00;;;12.27;;
21941;SDS011;11135;54.192;15.670;2023-11-18T02:02:48;22.73;;;11.48;;
21941;SDS011;11135;54.192;15.670;2023-11-18T02:06:14;24.33;;;11.63;;
21941;SDS011;11135;54.192;15.670;2023-11-18T02:09:43;24.05;;;11.60;;
21941;SDS011;11135;54.192;15.670;2023-11-18T02:13:10;21.27;;;10.98;;
21941;SDS011;11135;54.192;15.670;2023-11-18T02:16:38;22.95;;;10.98;;
21941;SDS011;11135;54.192;15.670;2023-11-18T02:20:04;23.92;;;11.45;;
21941;SDS011;11135;54.192;15.670;2023-11-18T02:23:39;18.63;;;9.93;;
21941;SDS011;11135;54.192;15.670;2023-11-18T02:27:07;20.45;;;10.85;;
21941;SDS011;11135;54.192;15.670;2023-11-18T02:30:34;21.60;;;11.88;;
21941;SDS011;11135;54.192;15.670;2023-11-18T02:34:14;19.08;;;9.68;;
21941;SDS011;11135;54.192;15.670;2023-11-18T02:37:44;26.25;;;11.95;;
21941;SDS011;11135;54.192;15.670;2023-11-18T02:41:10;24.90;;;11.98;;
21941;SDS011;11135;54.192;15.670;2023-11-18T02:44:39;27.38;;;12.07;;
21941;SDS011;11135;54.192;15.670;2023-11-18T02:48:05;26.67;;;11.75;;
21941;SDS011;11135;54.192;15.670;2023-11-18T02:51:31;26.13;;;12.27;;
21941;SDS011;11135;54.192;15.670;2023-11-18T02:55:01;22.63;;;12.25;;
21941;SDS011;11135;54.192;15.670;2023-11-18T02:58:29;21.30;;;11.63;;
21941;SDS011;11135;54.192;15.670;2023-11-18T03:01:58;23.33;;;11.35;;
21941;SDS011;11135;54.192;15.670;2023-11-18T03:05:24;23.10;;;11.52;;
21941;SDS011;11135;54.192;15.670;2023-11-18T03:08:50;19.05;;;10.73;;
21941;SDS011;11135;54.192;15.670;2023-11-18T03:12:15;20.35;;;11.00;;
21941;SDS011;11135;54.192;15.670;2023-11-18T03:15:41;19.80;;;10.43;;
21941;SDS011;11135;54.192;15.670;2023-11-18T03:19:10;21.77;;;10.85;;
21941;SDS011;11135;54.192;15.670;2023-11-18T03:22:36;20.08;;;10.75;;
21941;SDS011;11135;54.192;15.670;2023-11-18T03:26:02;20.73;;;10.48;;
21941;SDS011;11135;54.192;15.670;2023-11-18T03:29:27;21.15;;;10.20;;
21941;SDS011;11135;54.192;15.670;2023-11-18T03:32:53;21.88;;;10.02;;
21941;SDS011;11135;54.192;15.670;2023-11-18T03:36:21;19.67;;;10.32;;
21941;SDS011;11135;54.192;15.670;2023-11-18T03:39:48;24.27;;;10.77;;
21941;SDS011;11135;54.192;15.670;2023-11-18T03:43:14;24.27;;;10.23;;
21941;SDS011;11135;54.192;15.670;2023-11-18T03:46:39;19.33;;;9.95;;
21941;SDS011;11135;54.192;15.670;2023-11-18T03:50:05;21.15;;;10.95;;
21941;SDS011;11135;54.192;15.670;2023-11-18T03:53:34;23.52;;;11.43;;
21941;SDS011;11135;54.192;15.670;2023-11-18T03:57:00;19.25;;;9.82;;
21941;SDS011;11135;54.192;15.670;2023-11-18T04:00:25;24.48;;;11.52;;
21941;SDS011;11135;54.192;15.670;2023-11-18T04:03:52;22.17;;;11.43;;
21941;SDS011;11135;54.192;15.670;2023-11-18T04:07:18;22.33;;;11.52;;
21941;SDS011;11135;54.192;15.670;2023-11-18T04:10:46;30.55;;;11.43;;
21941;SDS011;11135;54.192;15.670;2023-11-18T04:14:12;23.05;;;11.30;;
21941;SDS011;11135;54.192;15.670;2023-11-18T04:17:41;25.00;;;11.98;;
21941;SDS011;11135;54.192;15.670;2023-11-18T04:21:07;24.90;;;11.57;;
21941;SDS011;11135;54.192;15.670;2023-11-18T04:24:33;23.00;;;12.48;;
21941;SDS011;11135;54.192;15.670;2023-11-18T04:28:02;22.30;;;11.57;;
21941;SDS011;11135;54.192;15.670;2023-11-18T04:31:27;22.65;;;11.50;;
21941;SDS011;11135;54.192;15.670;2023-11-18T04:34:53;20.95;;;10.80;;
21941;SDS011;11135;54.192;15.670;2023-11-18T04:38:20;19.98;;;10.80;;
21941;SDS011;11135;54.192;15.670;2023-11-18T04:41:46;24.05;;;11.25;;
21941;SDS011;11135;54.192;15.670;2023-11-18T04:45:14;20.98;;;12.13;;
21941;SDS011;11135;54.192;15.670;2023-11-18T04:48:41;22.67;;;11.43;;
21941;SDS011;11135;54.192;15.670;2023-11-18T04:52:06;17.50;;;10.27;;
21941;SDS011;11135;54.192;15.670;2023-11-18T04:55:33;19.23;;;10.48;;
21941;SDS011;11135;54.192;15.670;2023-11-18T04:58:58;21.42;;;10.77;;
21941;SDS011;11135;54.192;15.670;2023-11-18T05:02:27;21.10;;;11.27;;
21941;SDS011;11135;54.192;15.670;2023-11-18T05:05:52;21.15;;;11.10;;
21941;SDS011;11135;54.192;15.670;2023-11-18T05:09:20;21.15;;;10.00;;
21941;SDS011;11135;54.192;15.670;2023-11-18T05:12:45;22.13;;;10.68;;
21941;SDS011;11135;54.192;15.670;2023-11-18T05:16:18;20.98;;;10.82;;
21941;SDS011;11135;54.192;15.670;2023-11-18T05:19:47;18.13;;;10.00;;
21941;SDS011;11135;54.192;15.670;2023-11-18T05:23:12;19.02;;;10.70;;
21941;SDS011;11135;54.192;15.670;2023-11-18T05:26:38;19.23;;;9.35;;
21941;SDS011;11135;54.192;15.670;2023-11-18T05:30:04;20.02;;;10.32;;
21941;SDS011;11135;54.192;15.670;2023-11-18T05:33:30;20.88;;;10.15;;
21941;SDS011;11135;54.192;15.670;2023-11-18T05:37:00;19.65;;;10.85;;
21941;SDS011;11135;54.192;15.670;2023-11-18T05:40:26;18.90;;;9.88;;
21941;SDS011;11135;54.192;15.670;2023-11-18T05:43:55;19.17;;;9.73;;
21941;SDS011;11135;54.192;15.670;2023-11-18T05:47:21;21.33;;;9.98;;
21941;SDS011;11135;54.192;15.670;2023-11-18T05:50:48;17.90;;;9.90;;
21941;SDS011;11135;54.192;15.670;2023-11-18T05:54:17;23.27;;;10.65;;
21941;SDS011;11135;54.192;15.670;2023-11-18T05:57:46;16.88;;;9.02;;
21941;SDS011;11135;54.192;15.670;2023-11-18T06:01:11;18.13;;;9.27;;
21941;SDS011;11135;54.192;15.670;2023-11-18T06:04:46;19.40;;;9.05;;
21941;SDS011;11135;54.192;15.670;2023-11-18T06:08:13;21.63;;;9.88;;
21941;SDS011;11135;54.192;15.670;2023-11-18T06:11:41;22.98;;;10.00;;
21941;SDS011;11135;54.192;15.670;2023-11-18T06:15:07;18.50;;;9.70;;
21941;SDS011;11135;54.192;15.670;2023-11-18T06:18:37;18.40;;;10.25;;
21941;SDS011;11135;54.192;15.670;2023-11-18T06:22:02;20.80;;;10.00;;
21941;SDS011;11135;54.192;15.670;2023-11-18T06:25:28;20.20;;;11.73;;
21941;SDS011;11135;54.192;15.670;2023-11-18T06:28:56;19.52;;;10.38;;
21941;SDS011;11135;54.192;15.670;2023-11-18T06:32:26;23.33;;;10.20;;
21941;SDS011;11135;54.192;15.670;2023-11-18T06:35:53;20.00;;;9.93;;
21941;SDS011;11135;54.192;15.670;2023-11-18T06:39:25;16.80;;;9.05;;
21941;SDS011;11135;54.192;15.670;2023-11-18T06:42:52;19.20;;;9.82;;
21941;SDS011;11135;54.192;15.670;2023-11-18T06:46:27;17.37;;;9.37;;
21941;SDS011;11135;54.192;15.670;2023-11-18T06:49:56;17.57;;;9.53;;
21941;SDS011;11135;54.192;15.670;2023-11-18T06:53:23;22.20;;;9.88;;
21941;SDS011;11135;54.192;15.670;2023-11-18T06:56:49;20.98;;;9.88;;
21941;SDS011;11135;54.192;15.670;2023-11-18T07:00:15;21.73;;;10.00;;
21941;SDS011;11135;54.192;15.670;2023-11-18T07:03:43;21.25;;;10.63;;
21941;SDS011;11135;54.192;15.670;2023-11-18T07:07:11;19.50;;;9.05;;
21941;SDS011;11135;54.192;15.670;2023-11-18T07:10:36;20.30;;;10.82;;
21941;SDS011;11135;54.192;15.670;2023-11-18T07:14:02;21.02;;;9.63;;
21941;SDS011;11135;54.192;15.670;2023-11-18T07:17:29;21.42;;;10.27;;
21941;SDS011;11135;54.192;15.670;2023-11-18T07:21:01;20.75;;;10.05;;
21941;SDS011;11135;54.192;15.670;2023-11-18T07:24:27;21.92;;;10.77;;
21941;SDS011;11135;54.192;15.670;2023-11-18T07:27:53;21.17;;;10.38;;
21941;SDS011;11135;54.192;15.670;2023-11-18T07:31:18;21.25;;;11.00;;
21941;SDS011;11135;54.192;15.670;2023-11-18T07:34:45;18.42;;;10.18;;
21941;SDS011;11135;54.192;15.670;2023-11-18T07:38:14;22.45;;;11.48;;
21941;SDS011;11135;54.192;15.670;2023-11-18T07:41:40;21.25;;;10.85;;
21941;SDS011;11135;54.192;15.670;2023-11-18T07:45:07;23.92;;;11.57;;
21941;SDS011;11135;54.192;15.670;2023-11-18T07:48:40;21.98;;;10.52;;
21941;SDS011;11135;54.192;15.670;2023-11-18T07:52:06;19.77;;;10.48;;
21941;SDS011;11135;54.192;15.670;2023-11-18T07:55:34;19.73;;;10.18;;
21941;SDS011;11135;54.192;15.670;2023-11-18T07:59:02;25.67;;;12.63;;
21941;SDS011;11135;54.192;15.670;2023-11-18T08:02:34;27.73;;;13.00;;
21941;SDS011;11135;54.192;15.670;2023-11-18T08:06:00;21.20;;;11.65;;
21941;SDS011;11135;54.192;15.670;2023-11-18T08:09:29;25.98;;;12.77;;
21941;SDS011;11135;54.192;15.670;2023-11-18T08:12:57;26.75;;;11.38;;
21941;SDS011;11135;54.192;15.670;2023-11-18T08:16:24;22.02;;;12.18;;
21941;SDS011;11135;54.192;15.670;2023-11-18T08:19:50;25.77;;;12.43;;
21941;SDS011;11135;54.192;15.670;2023-11-18T08:23:16;45.15;;;26.90;;
21941;SDS011;11135;54.192;15.670;2023-11-18T08:26:41;29.27;;;15.00;;
21941;SDS011;11135;54.192;15.670;2023-11-18T08:30:10;23.35;;;13.27;;
21941;SDS011;11135;54.192;15.670;2023-11-18T08:33:36;29.42;;;14.63;;
21941;SDS011;11135;54.192;15.670;2023-11-18T08:37:02;24.05;;;13.70;;
21941;SDS011;11135;54.192;15.670;2023-11-18T08:40:28;27.90;;;15.30;;
21941;SDS011;11135;54.192;15.670;2023-11-18T08:43:54;22.23;;;13.10;;
21941;SDS011;11135;54.192;15.670;2023-11-18T08:47:38;23.08;;;13.32;;
21941;SDS011;11135;54.192;15.670;2023-11-18T08:51:04;21.67;;;10.90;;
21941;SDS011;11135;54.192;15.670;2023-11-18T08:54:33;17.77;;;10.00;;
21941;SDS011;11135;54.192;15.670;2023-11-18T08:58:22;22.90;;;12.02;;
21941;SDS011;11135;54.192;15.670;2023-11-18T09:01:54;18.80;;;11.00;;
21941;SDS011;11135;54.192;15.670;2023-11-18T09:05:25;21.25;;;12.63;;
21941;SDS011;11135;54.192;15.670;2023-11-18T09:08:54;20.33;;;11.32;;
21941;SDS011;11135;54.192;15.670;2023-11-18T09:12:24;18.92;;;10.55;;
21941;SDS011;11135;54.192;15.670;2023-11-18T09:15:52;18.00;;;12.05;;
21941;SDS011;11135;54.192;15.670;2023-11-18T09:19:18;20.98;;;12.18;;
21941;SDS011;11135;54.192;15.670;2023-11-18T09:22:50;19.25;;;11.57;;
21941;SDS011;11135;54.192;15.670;2023-11-18T09:26:21;21.35;;;11.90;;
21941;SDS011;11135;54.192;15.670;2023-11-18T09:29:49;21.88;;;11.02;;
21941;SDS011;11135;54.192;15.670;2023-11-18T09:33:16;16.98;;;10.95;;
21941;SDS011;11135;54.192;15.670;2023-11-18T09:36:48;17.60;;;11.20;;
21941;SDS011;11135;54.192;15.670;2023-11-18T09:40:17;18.92;;;10.40;;
21941;SDS011;11135;54.192;15.670;2023-11-18T09:43:47;16.45;;;9.52;;
21941;SDS011;11135;54.192;15.670;2023-11-18T09:47:17;15.52;;;9.02;;
21941;SDS011;11135;54.192;15.670;2023-11-18T09:50:48;17.70;;;9.88;;
21941;SDS011;11135;54.192;15.670;2023-11-18T09:54:17;15.77;;;9.45;;
21941;SDS011;11135;54.192;15.670;2023-11-18T09:57:47;15.65;;;8.30;;
21941;SDS011;11135;54.192;15.670;2023-11-18T10:01:20;15.50;;;9.93;;
21941;SDS011;11135;54.192;15.670;2023-11-18T10:04:51;16.27;;;10.20;;
21941;SDS011;11135;54.192;15.670;2023-11-18T10:08:20;16.05;;;9.18;;
21941;SDS011;11135;54.192;15.670;2023-11-18T10:11:52;14.60;;;9.18;;
21941;SDS011;11135;54.192;15.670;2023-11-18T10:15:25;12.45;;;8.48;;
21941;SDS011;11135;54.192;15.670;2023-11-18T10:18:56;15.80;;;9.60;;
21941;SDS011;11135;54.192;15.670;2023-11-18T10:22:23;12.68;;;8.73;;
21941;SDS011;11135;54.192;15.670;2023-11-18T10:25:51;16.38;;;10.15;;
21941;SDS011;11135;54.192;15.670;2023-11-18T10:29:16;14.10;;;7.82;;
21941;SDS011;11135;54.192;15.670;2023-11-18T10:32:45;13.00;;;8.45;;
21941;SDS011;11135;54.192;15.670;2023-11-18T10:36:27;14.15;;;9.50;;
21941;SDS011;11135;54.192;15.670;2023-11-18T10:39:56;16.27;;;10.90;;
21941;SDS011;11135;54.192;15.670;2023-11-18T10:43:26;16.13;;;10.25;;
21941;SDS011;11135;54.192;15.670;2023-11-18T10:46:53;15.38;;;9.77;;
21941;SDS011;11135;54.192;15.670;2023-11-18T10:50:24;13.40;;;7.68;;
21941;SDS011;11135;54.192;15.670;2023-11-18T10:53:56;15.23;;;8.88;;
21941;SDS011;11135;54.192;15.670;2023-11-18T10:57:29;12.10;;;8.45;;
21941;SDS011;11135;54.192;15.670;2023-11-18T11:00:57;11.60;;;6.82;;
21941;SDS011;11135;54.192;15.670;2023-11-18T11:04:24;10.90;;;7.13;;
21941;SDS011;11135;54.192;15.670;2023-11-18T11:07:56;12.00;;;6.95;;
21941;SDS011;11135;54.192;15.670;2023-11-18T11:11:22;12.27;;;7.88;;
21941;SDS011;11135;54.192;15.670;2023-11-18T11:14:50;12.40;;;7.13;;
21941;SDS011;11135;54.192;15.670;2023-11-18T11:18:22;10.85;;;6.93;;
21941;SDS011;11135;54.192;15.670;2023-11-18T11:21:53;11.90;;;6.70;;
21941;SDS011;11135;54.192;15.670;2023-11-18T11:25:24;10.35;;;7.18;;
21941;SDS011;11135;54.192;15.670;2023-11-18T11:28:52;11.82;;;6.70;;
21941;SDS011;11135;54.192;15.670;2023-11-18T11:32:23;10.15;;;6.40;;
21941;SDS011;11135;54.192;15.670;2023-11-18T11:35:55;11.52;;;6.22;;
21941;SDS011;11135;54.192;15.670;2023-11-18T11:39:25;11.48;;;7.80;;
21941;SDS011;11135;54.192;15.670;2023-11-18T11:42:56;10.32;;;6.70;;
21941;SDS011;11135;54.192;15.670;2023-11-18T11:46:25;11.55;;;7.03;;
21941;SDS011;11135;54.192;15.670;2023-11-18T11:49:59;12.55;;;7.90;;
21941;SDS011;11135;54.192;15.670;2023-11-18T11:53:34;13.38;;;9.02;;
21941;SDS011;11135;54.192;15.670;2023-11-18T11:57:08;12.82;;;7.63;;
21941;SDS011;11135;54.192;15.670;2023-11-18T12:00:40;14.73;;;9.50;;
21941;SDS011;11135;54.192;15.670;2023-11-18T12:04:08;15.18;;;10.10;;
21941;SDS011;11135;54.192;15.670;2023-11-18T12:07:44;15.85;;;9.20;;
21941;SDS011;11135;54.192;15.670;2023-11-18T12:11:11;14.95;;;9.15;;
21941;SDS011;11135;54.192;15.670;2023-11-18T12:14:51;15.75;;;10.35;;
21941;SDS011;11135;54.192;15.670;2023-11-18T12:18:22;16.17;;;10.00;;
21941;SDS011;11135;54.192;15.670;2023-11-18T12:21:55;13.27;;;8.70;;
21941;SDS011;11135;54.192;15.670;2023-11-18T12:29:02;10.73;;;6.45;;
21941;SDS011;11135;54.192;15.670;2023-11-18T12:43:56;12.27;;;7.32;;
21941;SDS011;11135;54.192;15.670;2023-11-18T12:47:29;11.50;;;6.28;;
21941;SDS011;11135;54.192;15.670;2023-11-18T12:51:01;10.85;;;5.35;;
21941;SDS011;11135;54.192;15.670;2023-11-18T12:54:36;9.45;;;5.75;;
21941;SDS011;11135;54.192;15.670;2023-11-18T12:58:14;8.98;;;5.88;;
21941;SDS011;11135;54.192;15.670;2023-11-18T13:01:43;8.55;;;6.05;;
21941;SDS011;11135;54.192;15.670;2023-11-18T13:05:15;9.93;;;6.15;;
21941;SDS011;11135;54.192;15.670;2023-11-18T13:08:41;10.68;;;6.55;;
21941;SDS011;11135;54.192;15.670;2023-11-18T13:12:07;13.32;;;7.40;;
21941;SDS011;11135;54.192;15.670;2023-11-18T13:15:33;15.25;;;9.02;;
21941;SDS011;11135;54.192;15.670;2023-11-18T13:19:07;16.10;;;10.55;;
21941;SDS011;11135;54.192;15.670;2023-11-18T13:22:36;13.32;;;9.35;;
21941;SDS011;11135;54.192;15.670;2023-11-18T13:26:10;15.52;;;10.23;;
21941;SDS011;11135;54.192;15.670;2023-11-18T13:29:36;16.60;;;11.52;;
21941;SDS011;11135;54.192;15.670;2023-11-18T13:33:03;17.38;;;11.23;;
21941;SDS011;11135;54.192;15.670;2023-11-18T13:36:33;17.45;;;10.55;;
21941;SDS011;11135;54.192;15.670;2023-11-18T13:40:01;16.38;;;10.60;;
21941;SDS011;11135;54.192;15.670;2023-11-18T13:43:40;15.25;;;9.45;;
21941;SDS011;11135;54.192;15.670;2023-11-18T13:47:09;20.13;;;12.18;;
21941;SDS011;11135;54.192;15.670;2023-11-18T13:50:40;15.15;;;11.25;;
21941;SDS011;11135;54.192;15.670;2023-11-18T13:54:08;15.48;;;8.75;;
21941;SDS011;11135;54.192;15.670;2023-11-18T13:57:34;16.02;;;8.93;;
21941;SDS011;11135;54.192;15.670;2023-11-18T14:01:10;15.98;;;9.80;;
21941;SDS011;11135;54.192;15.670;2023-11-18T14:04:39;16.52;;;11.07;;
21941;SDS011;11135;54.192;15.670;2023-11-18T14:08:06;16.15;;;9.65;;
21941;SDS011;11135;54.192;15.670;2023-11-18T14:11:38;14.93;;;9.35;;
21941;SDS011;11135;54.192;15.670;2023-11-18T14:15:07;15.18;;;10.02;;
21941;SDS011;11135;54.192;15.670;2023-11-18T14:18:33;15.13;;;9.70;;
21941;SDS011;11135;54.192;15.670;2023-11-18T14:22:00;15.70;;;9.65;;
21941;SDS011;11135;54.192;15.670;2023-11-18T14:25:29;16.45;;;10.38;;
21941;SDS011;11135;54.192;15.670;2023-11-18T14:29:00;14.60;;;9.48;;
21941;SDS011;11135;54.192;15.670;2023-11-18T14:32:26;15.55;;;9.80;;
21941;SDS011;11135;54.192;15.670;2023-11-18T14:35:52;14.38;;;9.13;;
21941;SDS011;11135;54.192;15.670;2023-11-18T14:39:18;17.60;;;9.98;;
21941;SDS011;11135;54.192;15.670;2023-11-18T14:42:46;15.68;;;9.93;;
21941;SDS011;11135;54.192;15.670;2023-11-18T14:46:14;17.13;;;9.30;;
21941;SDS011;11135;54.192;15.670;2023-11-18T14:49:41;15.60;;;10.30;;
21941;SDS011;11135;54.192;15.670;2023-11-18T14:53:07;17.55;;;9.38;;
21941;SDS011;11135;54.192;15.670;2023-11-18T14:56:34;17.80;;;10.10;;
21941;SDS011;11135;54.192;15.670;2023-11-18T15:00:02;15.77;;;9.10;;
21941;SDS011;11135;54.192;15.670;2023-11-18T15:03:44;16.17;;;9.57;;
21941;SDS011;11135;54.192;15.670;2023-11-18T15:07:10;13.65;;;7.93;;
21941;SDS011;11135;54.192;15.670;2023-11-18T15:10:35;14.80;;;9.00;;
21941;SDS011;11135;54.192;15.670;2023-11-18T15:14:06;19.20;;;11.55;;
21941;SDS011;11135;54.192;15.670;2023-11-18T15:17:35;15.57;;;8.57;;
21941;SDS011;11135;54.192;15.670;2023-11-18T15:21:13;21.30;;;11.85;;
21941;SDS011;11135;54.192;15.670;2023-11-18T15:24:38;18.90;;;10.32;;
21941;SDS011;11135;54.192;15.670;2023-11-18T15:28:04;22.75;;;12.77;;
21941;SDS011;11135;54.192;15.670;2023-11-18T15:31:32;23.48;;;11.90;;
21941;SDS011;11135;54.192;15.670;2023-11-18T15:34:58;17.77;;;9.77;;
21941;SDS011;11135;54.192;15.670;2023-11-18T15:38:26;16.50;;;10.10;;
21941;SDS011;11135;54.192;15.670;2023-11-18T15:41:52;17.83;;;11.05;;
21941;SDS011;11135;54.192;15.670;2023-11-18T15:45:20;18.73;;;10.48;;
21941;SDS011;11135;54.192;15.670;2023-11-18T15:48:46;17.75;;;9.80;;
21941;SDS011;11135;54.192;15.670;2023-11-18T15:52:13;19.02;;;10.63;;
21941;SDS011;11135;54.192;15.670;2023-11-18T15:55:44;14.35;;;9.25;;
21941;SDS011;11135;54.192;15.670;2023-11-18T15:59:11;16.50;;;9.18;;
21941;SDS011;11135;54.192;15.670;2023-11-18T16:02:36;12.80;;;8.13;;
21941;SDS011;11135;54.192;15.670;2023-11-18T16:06:03;14.95;;;9.68;;
21941;SDS011;11135;54.192;15.670;2023-11-18T16:09:29;17.13;;;9.40;;
21941;SDS011;11135;54.192;15.670;2023-11-18T16:12:58;15.48;;;8.35;;
21941;SDS011;11135;54.192;15.670;2023-11-18T16:16:25;12.98;;;7.70;;
21941;SDS011;11135;54.192;15.670;2023-11-18T16:19:50;13.73;;;8.13;;
21941;SDS011;11135;54.192;15.670;2023-11-18T16:23:17;13.45;;;7.97;;
21941;SDS011;11135;54.192;15.670;2023-11-18T16:26:44;13.43;;;7.95;;
21941;SDS011;11135;54.192;15.670;2023-11-18T16:30:12;12.85;;;8.15;;
21941;SDS011;11135;54.192;15.670;2023-11-18T16:33:42;11.97;;;7.50;;
21941;SDS011;11135;54.192;15.670;2023-11-18T16:37:07;9.95;;;5.20;;
21941;SDS011;11135;54.192;15.670;2023-11-18T16:40:34;14.25;;;7.28;;
21941;SDS011;11135;54.192;15.670;2023-11-18T16:43:59;10.98;;;7.40;;
21941;SDS011;11135;54.192;15.670;2023-11-18T16:47:27;13.63;;;7.38;;
21941;SDS011;11135;54.192;15.670;2023-11-18T16:50:53;12.32;;;7.15;;
21941;SDS011;11135;54.192;15.670;2023-11-18T16:54:19;11.95;;;6.45;;
21941;SDS011;11135;54.192;15.670;2023-11-18T16:58:00;12.80;;;7.88;;
21941;SDS011;11135;54.192;15.670;2023-11-18T17:01:26;14.25;;;8.05;;
21941;SDS011;11135;54.192;15.670;2023-11-18T17:04:54;12.57;;;6.82;;
21941;SDS011;11135;54.192;15.670;2023-11-18T17:08:20;12.10;;;7.78;;
21941;SDS011;11135;54.192;15.670;2023-11-18T17:11:46;14.60;;;8.35;;
21941;SDS011;11135;54.192;15.670;2023-11-18T17:15:12;15.02;;;8.95;;
21941;SDS011;11135;54.192;15.670;2023-11-18T17:18:38;12.02;;;8.43;;
21941;SDS011;11135;54.192;15.670;2023-11-18T17:22:07;12.38;;;7.63;;
21941;SDS011;11135;54.192;15.670;2023-11-18T17:25:32;12.52;;;7.25;;
21941;SDS011;11135;54.192;15.670;2023-11-18T17:28:59;13.30;;;8.27;;
21941;SDS011;11135;54.192;15.670;2023-11-18T17:32:25;12.63;;;7.05;;
21941;SDS011;11135;54.192;15.670;2023-11-18T17:35:51;15.18;;;8.38;;
21941;SDS011;11135;54.192;15.670;2023-11-18T17:39:19;12.52;;;7.53;;
21941;SDS011;11135;54.192;15.670;2023-11-18T17:42:47;11.15;;;6.70;;
21941;SDS011;11135;54.192;15.670;2023-11-18T17:46:16;12.07;;;7.28;;
21941;SDS011;11135;54.192;15.670;2023-11-18T17:49:41;12.60;;;6.70;;
21941;SDS011;11135;54.192;15.670;2023-11-18T17:53:07;11.80;;;6.93;;
21941;SDS011;11135;54.192;15.670;2023-11-18T17:56:37;14.27;;;7.43;;
21941;SDS011;11135;54.192;15.670;2023-11-18T18:00:04;12.30;;;7.78;;
21941;SDS011;11135;54.192;15.670;2023-11-18T18:03:35;12.40;;;6.68;;
21941;SDS011;11135;54.192;15.670;2023-11-18T18:07:00;10.45;;;6.22;;
21941;SDS011;11135;54.192;15.670;2023-11-18T18:10:26;7.85;;;5.25;;
21941;SDS011;11135;54.192;15.670;2023-11-18T18:13:54;10.30;;;6.65;;
21941;SDS011;11135;54.192;15.670;2023-11-18T18:17:20;12.27;;;7.15;;
21941;SDS011;11135;54.192;15.670;2023-11-18T18:20:46;11.45;;;7.50;;
21941;SDS011;11135;54.192;15.670;2023-11-18T18:24:13;9.90;;;5.30;;
21941;SDS011;11135;54.192;15.670;2023-11-18T18:27:39;9.90;;;5.55;;
21941;SDS011;11135;54.192;15.670;2023-11-18T18:31:08;9.52;;;5.53;;
21941;SDS011;11135;54.192;15.670;2023-11-18T18:34:33;9.52;;;5.97;;
21941;SDS011;11135;54.192;15.670;2023-11-18T18:37:59;12.38;;;6.90;;
21941;SDS011;11135;54.192;15.670;2023-11-18T18:41:26;9.95;;;5.53;;
21941;SDS011;11135;54.192;15.670;2023-11-18T18:44:52;10.55;;;5.88;;
21941;SDS011;11135;54.192;15.670;2023-11-18T18:48:21;12.35;;;7.55;;
21941;SDS011;11135;54.192;15.670;2023-11-18T18:51:48;11.80;;;7.50;;
21941;SDS011;11135;54.192;15.670;2023-11-18T18:55:13;12.65;;;6.97;;
21941;SDS011;11135;54.192;15.670;2023-11-18T18:58:39;13.63;;;7.60;;
21941;SDS011;11135;54.192;15.670;2023-11-18T19:02:05;11.85;;;6.55;;
21941;SDS011;11135;54.192;15.670;2023-11-18T19:05:35;12.00;;;6.53;;
21941;SDS011;11135;54.192;15.670;2023-11-18T19:09:01;11.50;;;6.28;;
21941;SDS011;11135;54.192;15.670;2023-11-18T19:12:27;9.63;;;5.50;;
21941;SDS011;11135;54.192;15.670;2023-11-18T19:15:53;11.85;;;6.80;;
21941;SDS011;11135;54.192;15.670;2023-11-18T19:19:19;10.27;;;6.32;;
21941;SDS011;11135;54.192;15.670;2023-11-18T19:22:47;8.98;;;5.45;;
21941;SDS011;11135;54.192;15.670;2023-11-18T19:26:12;9.15;;;5.97;;
21941;SDS011;11135;54.192;15.670;2023-11-18T19:29:38;11.02;;;5.63;;
21941;SDS011;11135;54.192;15.670;2023-11-18T19:33:06;12.65;;;6.18;;
21941;SDS011;11135;54.192;15.670;2023-11-18T19:36:33;10.63;;;5.97;;
21941;SDS011;11135;54.192;15.670;2023-11-18T19:40:02;9.55;;;5.13;;
21941;SDS011;11135;54.192;15.670;2023-11-18T19:43:28;11.60;;;5.38;;
21941;SDS011;11135;54.192;15.670;2023-11-18T19:46:54;11.35;;;6.10;;
21941;SDS011;11135;54.192;15.670;2023-11-18T19:50:20;10.65;;;5.45;;
21941;SDS011;11135;54.192;15.670;2023-11-18T19:53:49;9.77;;;5.70;;
21941;SDS011;11135;54.192;15.670;2023-11-18T19:57:17;10.15;;;6.13;;
21941;SDS011;11135;54.192;15.670;2023-11-18T20:00:44;11.25;;;5.85;;
21941;SDS011;11135;54.192;15.670;2023-11-18T20:04:10;11.48;;;5.85;;
21941;SDS011;11135;54.192;15.670;2023-11-18T20:07:36;11.25;;;5.07;;
21941;SDS011;11135;54.192;15.670;2023-11-18T20:11:02;11.00;;;5.05;;
21941;SDS011;11135;54.192;15.670;2023-11-18T20:14:35;8.77;;;5.55;;
21941;SDS011;11135;54.192;15.670;2023-11-18T20:18:00;13.45;;;6.50;;
21941;SDS011;11135;54.192;15.670;2023-11-18T20:21:28;9.90;;;4.80;;
21941;SDS011;11135;54.192;15.670;2023-11-18T20:24:53;9.15;;;5.15;;